Tiempo atmosférico en la estación meteorológica de Albacete, Albacete (674 m.)



Fecha
DESCASC
Temp. máxima en grados centígrados (hora)
DESCASC
Temp. mínima en grados centígrados (hora)
DESCASC
Temp. media en grados centígrados
DESCASC
Racha de viento máxima en m/sg (hora)
DESCASC
Velocidad máxima media en intervalos de 10 minutos(hora)
DESCASC
Precipitaciones diarias en mm
DESCASC
Precipitaciones de 00:00 a 06:00 en mm
DESCASC
Precipitaciones de 06:00 a 12:00 en mm
DESCASC
Precipitaciones de 12:00 a 18:00 en mm
DESCASC
Precipitaciones de 18:00 a 24:00 en mm
DESCASC
20-09-2018 31.3 (17:00) 16.1 (07:50) 23.7 5.28 (20:10) 1.67 (22:10) 0 0 0 0 0
19-09-2018 29.5 (17:00) 15.4 (09:00) 22.4 6.11 (21:50) 2.5 (21:50) 0.2 0.2 0 0 0
18-09-2018 28.9 (16:10) 17.2 (09:30) 23.1 9.44 (20:50) 3.06 (21:20) 1.2 0 0 0 1.2
17-09-2018 27.1 (16:10) 16.2 (08:10) 21.7 8.06 (13:10) 2.78 (16:00) 0 0 0 0 0
16-09-2018 29.4 (16:40) 14.4 (00:00) 21.9 6.11 (21:30) 2.22 (21:40) 0 0 0 0 0
15-09-2018 23.6 (12:30) 16.6 (00:00) 20.1 7.22 (14:20) 2.78 (14:00) 0.7 0 0 0.7 0
14-09-2018 29.6 (17:00) 18.5 (00:00) 24.1 6.39 (16:30) 2.78 (13:00) 0 0 0 0 0
13-09-2018 31.4 (16:50) 16.9 (00:00) 24.1 6.67 (23:59) 2.22 (22:10) 0 0 0 0 0
12-09-2018 27.6 (17:40) 17.1 (00:00) 22.4 6.11 (15:00) 2.78 (15:00) 0 0 0 0 0
11-09-2018 25.4 (14:40) 14.8 (00:00) 20.1 7.5 (16:10) 2.78 (16:40) 0 0 0 0 0
10-09-2018 25.6 (16:20) 15.1 (00:00) 20.4 8.89 (01:00) 2.78 (16:20) 25.1 25 0.1 0 0
09-09-2018 25.1 (17:10) 14.6 (00:00) 19.9 14.44 (18:30) 5.28 (18:30) 15.1 0 0 0 15.1
08-09-2018 22.4 (17:30) 15.7 (00:00) 19 12.5 (11:20) 6.67 (11:20) 0.2 0 0 0 0.2
07-09-2018 29.4 (17:30) 17.6 (00:00) 23.5 7.78 (17:30) 3.33 (12:40) 0 0 0 0 0
06-09-2018 29.1 (17:40) 16.5 (00:00) 22.8 5.83 (01:40) 2.78 (01:40) 0 0 0 0 0
05-09-2018 29.8 (16:30) 17.5 (00:00) 23.6 6.67 (17:20) 2.78 (19:10) 0 0 0 0 0
04-09-2018 31.5 (17:10) 18.7 (00:00) 25.1 6.67 (03:20) 2.22 (00:30) 0 0 0 0 0
03-09-2018 31.2 (15:10) 20 (00:00) 25.6 9.17 (00:20) 2.78 (03:40) 4.3 0.4 1 2.9 0
02-09-2018 35.6 (16:30) 19.1 (00:00) 27.3 7.22 (00:50) 2.78 (00:40) 0 0 0 0 0
01-09-2018 32.9 (17:00) 18.6 (00:00) 25.8 7.22 (14:20) 3.61 (14:30) 0 0 0 0 0
31-08-2018 33.4 (17:20) 18.7 (00:00) 26.1 6.11 (21:50) 2.22 (22:00) 0 0 0 0 0
30-08-2018 31.4 (17:30) 18.9 (00:00) 25.1 8.06 (15:40) 2.78 (16:20) 0 0 0 0 0
29-08-2018 33.1 (16:40) 20 (00:00) 26.5 9.17 (22:10) 3.06 (21:40) 0 0 0 0 0
28-08-2018 34.5 (15:30) 20.9 (00:00) 27.7 10.83 (20:50) 4.17 (01:50) 2.2 0 0 0 2.2
27-08-2018 34.6 (17:10) 17.8 (00:00) 26.2 7.22 (16:10) 3.06 (16:10) 0 0 0 0 0
26-08-2018 34.5 (17:00) 20.1 (00:00) 27.3 6.39 (11:00) 2.78 (11:10) 0 0 0 0 0
25-08-2018 34.5 (16:10) 18 (00:00) 26.3 7.78 (18:40) 2.5 (18:40) 0 0 0 0 0

Gráficas

Temp. máximas Temp. mínimas Temp. medias Precipitaciones Rachas de viento máximas Velocidades máximas media en intervalos de 10 minutos

Datos horarios

Fecha y hora oficial Temperatura (ºC) Velocidad del viento (km/h) Dirección del viento Racha (km/h) Dirección de racha Precipitación (mm) Presión (hPa) Tendencia (hPa) Humedad (%)
2018-09-23 23:00:00 24.8 4 Sur 19 Sur 0 944.6 0.6 39
2018-09-23 22:00:00 25.8 4 Sur 17 Sudeste 0 944.6 0.6 37
2018-09-23 21:00:00 27.1 3 Sudoeste 8 Sur 0 944.2 0.3 37
2018-09-23 20:00:00 29.1 2 Oeste 8 Sudoeste 0 944 -0.4 33
2018-09-23 19:00:00 31.2 0 Calma 15 Sudeste 0 944 -0.8 28
2018-09-23 18:00:00 32.7 5 Sudeste 12 Sudeste 0 943.9 -1.4 27
2018-09-23 17:00:00 33.3 5 Este 12 Este 0 944.4 -1.9 27
2018-09-23 16:00:00 32.4 4 Sur 15 Sudeste 0 944.8 -1.8 28
2018-09-23 15:00:00 32.7 3 Oeste 13 Este 0 945.3 -1.7 30
2018-09-23 14:00:00 30.9 3 Oeste 11 Sudoeste 0 946.3 -0.8 32
2018-09-23 13:00:00 29.4 3 Sur 11 Sudoeste 0 946.6 -0.2 36
2018-09-23 12:00:00 25.5 3 Este 7 Sudeste 0 947 0.8 50
2018-09-23 11:00:00 21.7 2 Sur 9 Sur 0 947.1 1.4 63
2018-09-23 10:00:00 19.3 3 Sudoeste 9 Sudoeste 0 946.8 1.2 76
2018-09-23 09:00:00 17.7 3 Sudoeste 13 Sur 0 946.2 0.6 84
2018-09-23 08:00:00 17.7 0 Calma 3 Oeste 0 945.7 0.3 84
2018-09-23 07:00:00 18.2 0 Calma 2 Noroeste 0 945.6 0 83
2018-09-23 06:00:00 18.5 0 Calma 5 Nordeste 0 945.6 -0.4 80
2018-09-23 05:00:00 19.4 2 Este -- -- -- 945.4 -0.6 77
2018-09-23 04:00:00 20.1 2 Este 5 Este 0 945.6 -0.6 73
2018-09-23 03:00:00 21.6 4 Este 10 Sudeste 0 946 0 65
2018-09-23 02:00:00 22.6 5 Sudeste 13 Sur 0 946 0.2 62
2018-09-23 01:00:00 23 4 Sudeste 17 Sudoeste 0 946.2 0.5 60
2018-09-23 00:00:00 23.6 4 Sur 18 Sudoeste 0 946 1 54
2018-09-22 23:00:00 24.3 5 Sur 19 Sudoeste 0 945.8 1 48
2018-09-22 22:00:00 25.5 4 Sur 16 Sur 0 945.7 1.2 43
2018-09-22 21:00:00 26 0 Calma 5 Sur 0 945 0.3 40
2018-09-22 20:00:00 28.4 0 Calma 5 Este 0 944.8 0.1 34
2018-09-22 19:00:00 31.1 0 Calma 6 Este 0 944.5 -0.7 28
2018-09-22 18:00:00 32.4 2 Nordeste 12 Norte 0 944.7 -0.9 26
2018-09-22 17:00:00 33.4 4 Nordeste 15 Este 0 944.7 -1.3 26
2018-09-22 16:00:00 32.6 3 Este 12 Este 0 945.2 -1.2 28
2018-09-22 15:00:00 31.6 3 Norte 16 Oeste 0 945.6 -0.9 30
2018-09-22 14:00:00 30.7 5 Sudoeste 12 Sur 0 946 -0.5 33
2018-09-22 13:00:00 29.2 0 Calma 9 Sudeste 0 946.4 0.4 38
2018-09-22 12:00:00 25.3 0 Calma 6 Este 0 946.5 1 57
2018-09-22 11:00:00 21.7 0 Calma 6 Este 0 946.5 1.4 72
2018-09-22 10:00:00 19.5 0 Calma -- -- 0 946 1.6 85
2018-09-22 09:00:00 18.1 0 Calma 3 Norte 0 945.5 1.3 87
2018-09-22 08:00:00 18.2 0 Calma 5 Este 0 945.1 1.4 86
2018-09-22 07:00:00 19.2 2 Este 6 Sudeste 0 944.4 0.5 81
2018-09-22 06:00:00 19.8 3 Sudeste 10 Sudeste 0 944.2 0 80
2018-09-22 05:00:00 19.4 0 Calma 7 Sudeste 0 943.7 -0.3 80
2018-09-22 04:00:00 20.2 0 Calma 7 Nordeste 0 943.9 -0.1 75
2018-09-22 03:00:00 21.4 2 Este 9 Sudeste 0 944.2 0.6 70
2018-09-22 02:00:00 22.2 0 Calma 15 Sur 0 944 0.8 64
2018-09-22 01:00:00 22.8 5 Sur 15 Sur 0 944 1.3 60
2018-09-22 00:00:00 23.3 4 Sudoeste 17 Sur 0 943.6 1.6 52
2018-09-21 23:00:00 24.3 6 Sur 17 Sur 0 943.2 1.8 45
2018-09-21 22:00:00 24.1 0 Calma 3 Sudoeste 0 942.7 1.7 45
2018-09-21 21:00:00 25.7 0 Calma 5 Sur 0 942 1 39
2018-09-21 20:00:00 27.8 0 Calma 7 Sudoeste 0 941.4 0.3 33
2018-09-21 19:00:00 30.5 0 Calma 9 Oeste 0 941 -0.5 26
2018-09-21 18:00:00 32.4 0 Calma 13 Norte 0 941 -0.8 25
2018-09-21 17:00:00 32 0 Calma 12 Este 0 941.1 -1.4 26
2018-09-21 16:00:00 31.3 0 Calma 12 Noroeste 0 941.5 -1.6 26
2018-09-21 15:00:00 31.3 4 Norte 15 Este 0 941.8 -1.5 30
2018-09-21 14:00:00 29.8 2 Noroeste 10 Oeste 0 942.5 -0.5 36
2018-09-21 13:00:00 27.3 5 Oeste 14 Noroeste 0 943.1 0.5 42
2018-09-21 12:00:00 24.8 4 Oeste 11 Oeste 0 943.3 1 50
2018-09-21 11:00:00 21.7 3 Oeste 7 Oeste 0 943 1.3 58
2018-09-21 10:00:00 19.1 0 Calma -- -- 0 942.6 1.2 72
2018-09-21 09:00:00 17.2 0 Calma 0 Calma 0 942.3 1.1 93
2018-09-21 08:00:00 16.9 0 Calma 0 Calma 0 941.7 0.6 92
2018-09-21 07:00:00 17.4 0 Calma 3 Este 0 941.4 0.2 90
2018-09-21 06:00:00 17.9 0 Calma 6 Este 0 941.2 -0.1 88
2018-09-21 05:00:00 18.8 0 Calma 5 Sur 0 941.1 -0.5 84
2018-09-21 04:00:00 19.8 0 Calma 12 Sur 0 941.2 -0.4 80
2018-09-21 03:00:00 20.5 4 Sudeste 15 Sudeste 0 941.3 -0.8 76
2018-09-21 02:00:00 21.1 5 Sur 17 Sudeste 0 941.6 -0.5 71
2018-09-21 01:00:00 21.5 5 Sudeste 17 Sudeste 0 941.6 -0.2 67
2018-09-21 00:00:00 22.1 4 Sudeste 16 Sudeste 0 942.1 0.9 60
2018-09-20 23:00:00 22.9 4 Sudeste 18 Sur 0 942.1 1 54
2018-09-20 22:00:00 24.1 5 Sur 16 Sudoeste 0 941.8 0.9 46
2018-09-20 21:00:00 25.6 5 Sur 19 Sudoeste 0 941.2 0.2 39
2018-09-20 20:00:00 27.1 4 Sur 13 Sudeste 0 941.1 -0.5 35
2018-09-20 19:00:00 29 2 Este 9 Sudeste 0 940.9 -1.1 28
2018-09-20 18:00:00 30.5 2 Este 9 Este 0 941 -1.8 26
2018-09-20 17:00:00 30.8 2 Este 13 Este 0 941.6 -1.9 26
2018-09-20 16:00:00 30.4 4 Oeste 11 Norte 0 942 -1.9 27
2018-09-20 15:00:00 30.2 4 Este 11 Este 0 942.8 -1.4 31
2018-09-20 14:00:00 28.7 3 Nordeste 10 Sudoeste 0 943.5 -0.9 37
2018-09-20 13:00:00 26.7 4 Sudoeste 13 Sudoeste 0 943.9 -0.4 44
2018-09-20 12:00:00 23.2 0 Calma 6 Este 0 944.2 0.1 66
2018-09-20 11:00:00 20.1 2 Este 5 Noroeste 0 944.4 0.5 83
2018-09-20 10:00:00 18.3 2 Oeste 5 Noroeste 0 944.3 0.5 92
2018-09-20 09:00:00 16.5 0 Calma 4 Este 0 944.1 0.2 94
2018-09-20 08:00:00 16.1 2 Este 5 Este 0 943.9 -0.3 94
2018-09-20 07:00:00 16.6 0 Calma 3 Nordeste 0 943.8 -0.5 93
2018-09-20 06:00:00 17 0 Calma 7 Este 0 943.9 -0.7 90
2018-09-20 05:00:00 17.8 3 Este 6 Nordeste 0 944.2 -0.5 90
2018-09-20 04:00:00 18.8 3 Este 11 Sudeste 0 944.3 -0.6 87
2018-09-20 03:00:00 19.6 3 Sudeste 12 Sudeste 0 944.6 -0.3 84
2018-09-20 02:00:00 20 3 Sudeste 13 Sudeste 0 944.7 0 78
2018-09-20 01:00:00 20.7 3 Sudeste 13 Sudeste 0 944.9 0.8 78
2018-09-20 00:00:00 21.5 4 Sudeste 17 Sur 0 944.9 1.6 71
2018-09-19 23:00:00 22.3 5 Sudeste 17 Sudeste 0 944.7 1.7 63
2018-09-19 22:00:00 23.5 6 Sudeste 22 Sudeste 0 944.1 1.1 53
2018-09-19 21:00:00 24.5 6 Sudeste 13 Sudeste 0 943.3 0.5 48
2018-09-19 20:00:00 26 2 Nordeste 11 Este 0 943 0 43
2018-09-19 19:00:00 27.6 2 Nordeste 12 Nordeste 0 943 -0.5 38
2018-09-19 18:00:00 28.4 2 Este 15 Este 0 942.8 -1.2 36
2018-09-19 17:00:00 29 4 Nordeste 15 Este 0 943 -1.4 34
2018-09-19 16:00:00 28.6 3 Nordeste 15 Nordeste 0 943.5 -1.4 39
2018-09-19 15:00:00 27.6 3 Nordeste 14 Norte 0 944 -1 43
2018-09-19 14:00:00 26.4 0 Calma 12 Sudeste 0 944.4 -0.3 48
2018-09-19 13:00:00 23.4 3 Norte 9 Nordeste 0 944.9 0.8 52
2018-09-19 12:00:00 20.9 2 Norte 8 Norte 0 945 1.3 81
2018-09-19 11:00:00 17.6 0 Calma 6 Este 0 944.7 1.6 96
2018-09-19 10:00:00 16 0 Calma 6 Sudeste 0 944.1 1.4 96
2018-09-19 09:00:00 15.4 3 Este 6 Este 0 943.7 1.2 96
2018-09-19 08:00:00 15.7 0 Calma 7 Oeste 0 943.1 0.7 96
2018-09-19 07:00:00 16.1 4 Sudoeste 10 Oeste 0 942.7 0.3 96
2018-09-19 06:00:00 16.4 0 Calma 6 Sudeste 0 942.5 0.4 96
2018-09-19 05:00:00 16.5 0 Calma 10 Nordeste 0 942.4 0.4 95
2018-09-19 04:00:00 16.9 4 Nordeste 13 Este 0 942.4 -0.3 95
2018-09-19 03:00:00 17.5 0 Calma 5 Oeste 0 942.1 -1.1 94
2018-09-19 02:00:00 17.9 2 Sudoeste 6 Sudoeste 0.1 942 -0.9 92
2018-09-19 01:00:00 17.9 2 Sudoeste 8 Sudoeste 0.1 942.7 0.7 91
2018-09-19 00:00:00 18.7 3 Este 11 Oeste 1.1 943.2 1.5 87
2018-09-18 23:00:00 19.5 0 Calma 12 Este 0.1 942.9 3.2 75
2018-09-18 22:00:00 19.6 5 Este 29 Este 0 942 3 74
2018-09-18 21:00:00 20.7 10 Nordeste 34 Norte 0 941.7 2.9 57
2018-09-18 20:00:00 25.1 3 Sur 14 Sudoeste 0 939.7 0.5 49
2018-09-18 19:00:00 25.7 5 Sudoeste 20 Sudoeste 0 939 0 46
2018-09-18 18:00:00 27.1 9 Sudoeste 18 Sudoeste 0 938.8 -0.7 42
2018-09-18 17:00:00 28.1 2 Sudoeste 10 Noroeste 0 939.2 -0.8 40
2018-09-18 16:00:00 28.5 4 Este 16 Oeste 0 939 -1.5 38
2018-09-18 15:00:00 26.8 7 Oeste 19 Oeste 0 939.5 -1.5 40
2018-09-18 14:00:00 26 4 Oeste 17 Este 0 940 -1.1 47
2018-09-18 13:00:00 24.7 0 Calma 12 Sudoeste 0 940.5 0 57
2018-09-18 12:00:00 21.3 2 Oeste 13 Oeste 0 941 1.1 79
2018-09-18 11:00:00 19.1 3 Oeste 10 Sur 0 941.1 1.8 93
2018-09-18 10:00:00 17.6 3 Sur 10 Sur 0 940.5 1.4 96
2018-09-18 09:00:00 17.4 4 Sudoeste 14 Oeste 0 939.9 0.7 96
2018-09-18 08:00:00 17.4 2 Este 5 Nordeste 0 939.3 0.1 95
2018-09-18 07:00:00 17.7 0 Calma -- -- 0 939.1 -0.2 95
2018-09-18 06:00:00 18 0 Calma 6 Este 0 939.2 -0.4 94
2018-09-18 05:00:00 18.3 3 Este 9 Este 0 939.2 -0.6 93
2018-09-18 04:00:00 18.3 4 Este 8 Este 0 939.3 -0.7 94
2018-09-18 03:00:00 18.7 3 Este 6 Este 0 939.6 -0.7 94
2018-09-18 02:00:00 18.7 0 Calma 5 Este 0 939.8 -0.6 92
2018-09-18 01:00:00 18.8 0 Calma 5 Este 0 940 -0.1 90
2018-09-18 00:00:00 19.1 2 Este 6 Este 0 940.3 -0.1 88
2018-09-17 23:00:00 19.4 0 Calma 8 Este 0 940.4 0.8 85
2018-09-17 22:00:00 19.9 4 Este 9 Nordeste 0 940.1 0.9 81
2018-09-17 21:00:00 20.3 5 Este 15 Sudeste 0 940.4 0.9 78
2018-09-17 20:00:00 22 4 Nordeste 18 Sudoeste 0 939.6 -0.1 69
2018-09-17 19:00:00 22.9 5 Sudoeste 21 Sur 0 939.2 -1 65
2018-09-17 18:00:00 23.7 6 Sur 26 Sudoeste 0 939.5 -1.5 59
2018-09-17 17:00:00 25.2 8 Sur 25 Oeste 0 939.7 -1.9 53
2018-09-17 16:00:00 27 10 Sudeste 25 Sudeste 0 940.2 -2.2 48
2018-09-17 15:00:00 25 7 Sur 24 Sur 0 941 -1.7 53
2018-09-17 14:00:00 24.2 9 Sudeste 29 Sur 0 941.6 -1.2 55
2018-09-17 13:00:00 24.4 8 Sur 28 Sudeste 0 942.4 -0.3 56
2018-09-17 12:00:00 22.5 8 Sudeste 21 Sudeste 0 942.7 0.2 67
2018-09-17 11:00:00 19.8 3 Sudeste 10 Este 0 942.8 0.3 81
2018-09-17 10:00:00 18 3 Nordeste 12 Este 0 942.7 0.3 93
2018-09-17 09:00:00 16.6 4 Nordeste 11 Este 0 942.5 -0.1 94
2018-09-17 08:00:00 16.3 2 Este 8 Este 0 942.5 0 92
2018-09-17 07:00:00 16.5 4 Este 8 Este 0 942.4 -0.6 90
2018-09-17 06:00:00 17.1 3 Nordeste 8 Este 0 942.6 -0.8 90
2018-09-17 05:00:00 17.6 4 Sudeste 12 Sudeste 0 942.5 -1.3 90
2018-09-17 04:00:00 17.3 0 Calma 9 Nordeste 0 943 -0.6 83
2018-09-17 03:00:00 18 4 Este 10 Este 0 943.4 0 80
2018-09-17 02:00:00 19.2 0 Calma 9 Este 0 943.8 0.4 81
2018-09-17 01:00:00 20.3 2 Este 18 Sudeste 0 943.6 0.4 84
2018-09-17 00:00:00 21.1 8 Sudeste 19 Sudeste 0 943.4 0.8 79
2018-09-16 23:00:00 21.8 6 Sudeste 20 Sudoeste 0 943.4 1.5 74
2018-09-16 22:00:00 22.6 6 Sudeste 22 Sur 0 943.2 1.6 66
2018-09-16 21:00:00 24.5 6 Sur 19 Sudoeste 0 942.6 0.9 48
2018-09-16 20:00:00 26.3 2 Sudeste 9 Sudoeste 0 941.9 -0.1 40
2018-09-16 19:00:00 27.6 0 Calma 15 Oeste 0 941.6 -0.9 37
2018-09-16 18:00:00 28.3 0 Calma 15 Sur 0 941.7 -1.7 34
2018-09-16 17:00:00 28.9 4 Sudeste 16 Este 0 942 -2.1 36
2018-09-16 16:00:00 28.9 4 Este 14 Este 0 942.5 -1.8 34
2018-09-16 15:00:00 27.6 4 Nordeste 14 Este 0 943.4 -1.5 36
2018-09-16 14:00:00 25.5 3 Este 11 Norte 0 944.1 -1.1 46
2018-09-16 13:00:00 22.6 0 Calma 10 Oeste 0 944.3 -0.5 63
2018-09-16 12:00:00 19.8 2 Nordeste 9 Sudoeste 0 944.9 0.1 80
2018-09-16 11:00:00 17 0 Calma 7 Este 0 945.2 1.5 95
2018-09-16 10:00:00 15.8 0 Calma 8 Sudoeste 0 944.8 0.8 97
2018-09-16 09:00:00 15.2 3 Sudoeste 11 Sudoeste 0 944.8 1.1 97
2018-09-16 08:00:00 15 0 Calma 4 Sur 0 943.7 -0.2 96
2018-09-16 07:00:00 15.3 0 Calma 6 Nordeste 0 944 -0.1 96
2018-09-16 06:00:00 15.8 2 Este 9 Este 0 943.7 -0.6 96
2018-09-16 05:00:00 16.3 3 Sudeste 11 Sudeste 0 943.9 -0.5 96
2018-09-16 04:00:00 16.3 0 Calma 5 Sur 0 944.1 -0.7 96
2018-09-16 03:00:00 16.3 0 Calma -- -- 0 944.3 -0.6 95
2018-09-16 02:00:00 16.7 0 Calma 5 Este 0 944.4 -0.4 94
2018-09-16 01:00:00 17.3 0 Calma 9 Nordeste 0 944.8 0.5 94
2018-09-16 00:00:00 18 3 Nordeste 8 Nordeste 0 944.9 1.2 90
2018-09-15 23:00:00 18.9 3 Este 9 Este 0 944.8 1.8 87
2018-09-15 22:00:00 19.4 0 Calma 8 Este 0 944.3 1.5 85
2018-09-15 21:00:00 19.8 2 Este 9 Este 0 943.7 0.9 83
2018-09-15 20:00:00 20.3 3 Este 14 Sudeste 0 943 0 78
2018-09-15 19:00:00 21.1 5 Sudeste 23 Sudeste 0 942.8 -0.5 70
2018-09-15 18:00:00 22.6 7 Este 23 Sudeste 0 942.8 -0.7 60
2018-09-15 17:00:00 20.6 6 Sudeste 23 Este 0 943 -0.4 73
2018-09-15 16:00:00 20.7 6 Sudeste 22 Sudeste 0.6 943.3 0.1 85
2018-09-15 15:00:00 20.2 6 Sur 26 Sudeste 0.1 943.5 -0.1 76
2018-09-15 14:00:00 22.8 10 Este 26 Nordeste 0 943.4 0.2 61
2018-09-15 13:00:00 23 6 Este 21 Este 0 943.2 0 54
2018-09-15 12:00:00 21.4 3 Sudeste 15 Este 0 943.6 0.8 75
2018-09-15 11:00:00 20 4 Este 15 Este 0 943.2 0.9 87
2018-09-15 10:00:00 18.1 5 Este 9 Nordeste 0 943.2 1.1 94
2018-09-15 09:00:00 16.8 0 Calma 4 Este 0 942.8 1 94
2018-09-15 08:00:00 16.7 0 Calma 5 Este 0 942.3 0.7 93
2018-09-15 07:00:00 17.2 0 Calma 8 Este 0 942.1 0 92
2018-09-15 06:00:00 17.7 2 Este 8 Este 0 941.8 -0.7 90
2018-09-15 05:00:00 19 0 Calma 8 Sudeste 0 941.6 -1.1 89
2018-09-15 04:00:00 19.5 4 Sudeste 15 Sudeste 0 942.1 -0.5 84
2018-09-15 03:00:00 20.1 5 Sudeste 13 Sur 0 942.5 0.2 84
2018-09-15 02:00:00 20.5 3 Este 8 Este 0 942.7 0.8 81
2018-09-15 01:00:00 21.3 3 Sudeste 9 Sudeste 0 942.6 1.2 77
2018-09-15 00:00:00 21.9 3 Este 14 Sudeste 0 942.3 1.5 74
2018-09-14 23:00:00 22.3 6 Sudeste 17 Sudeste 0 941.9 1.5 70
2018-09-14 22:00:00 23 6 Sudeste 15 Sudeste 0 941.4 1.2 67
2018-09-14 21:00:00 23.9 4 Sur 21 Sudoeste 0 940.8 0.5 54
2018-09-14 20:00:00 25.2 7 Sur 22 Sudoeste 0 940.4 -0.1 47
2018-09-14 19:00:00 27.2 6 Sur 19 Sudoeste 0 940.2 -0.5 39
2018-09-14 18:00:00 27.8 5 Sur 21 Sur 0 940.3 -1.2 36
2018-09-14 17:00:00 29.3 9 Sudeste 23 Sudeste 0 940.5 -1.4 35
2018-09-14 16:00:00 27.6 6 Sudoeste 21 Sur 0 940.7 -1.9 40
2018-09-14 15:00:00 27.9 6 Sudeste 21 Sudoeste 0 941.5 -1 41
2018-09-14 14:00:00 28.2 5 Sudeste 20 Este 0 941.9 -0.5 41
2018-09-14 13:00:00 25.8 10 Sudeste 20 Sudeste 0 942.6 0.4 47
2018-09-14 12:00:00 25.3 8 Sudeste 21 Sudeste 0 942.5 0.3 57
2018-09-14 11:00:00 22.9 5 Sudeste 18 Sudeste 0 942.4 0.4 74
2018-09-14 10:00:00 21.4 5 Sudeste 18 Este 0 942.2 0.5 84
2018-09-14 09:00:00 19.8 4 Sudeste 15 Sudeste 0 942.2 1 92
2018-09-14 08:00:00 18.5 3 Este 8 Este 0 942 0.6 92
2018-09-14 07:00:00 19.1 2 Este 14 Sudeste 0 941.7 -0.1 92
2018-09-14 06:00:00 19.4 5 Sudeste 14 Este 0 941.2 -0.7 90
2018-09-14 05:00:00 19.3 5 Sudeste 15 Sudeste 0 941.4 -0.8 90
2018-09-14 04:00:00 19.4 2 Sur 13 Sudeste 0 941.8 -0.4 88
2018-09-14 03:00:00 19.6 6 Sudeste 18 Sudeste 0 941.9 0.1 88
2018-09-14 02:00:00 20.2 8 Sudeste 17 Sudeste 0 942.2 0.8 85
2018-09-14 01:00:00 20.7 4 Este 16 Sur 0 942.2 0.9 80
2018-09-14 00:00:00 21.5 7 Sudeste 24 Sudeste 0 941.8 1.2 74
2018-09-13 23:00:00 22.5 6 Sudeste 22 Sudeste 0 941.4 0.9 71
2018-09-13 22:00:00 23.8 7 Sudeste 23 Sur 0 941.3 0.7 62
2018-09-13 21:00:00 25.9 2 Sudeste 9 Este 0 940.6 0 34
2018-09-13 20:00:00 27.7 3 Sur 11 Sudoeste 0 940.5 -0.6 30
2018-09-13 19:00:00 29 3 Sudeste 11 Sudoeste 0 940.6 -1 27
2018-09-13 18:00:00 30.8 3 Nordeste 12 Norte 0 940.6 -1.6 26
2018-09-13 17:00:00 31.3 0 Calma 11 Nordeste 0 941.1 -1.7 26
2018-09-13 16:00:00 30.2 2 Sur 11 Sudeste 0 941.6 -1.9 28
2018-09-13 15:00:00 29.8 2 Noroeste 11 Noroeste 0 942.2 -1.6 30
2018-09-13 14:00:00 28.6 0 Calma 10 Sudoeste 0 942.8 -0.9 37
2018-09-13 13:00:00 26.4 0 Calma 10 Norte 0 943.5 0.2 46
2018-09-13 12:00:00 23.9 2 Nordeste 9 Norte 0 943.8 0.7 58
2018-09-13 11:00:00 21.1 0 Calma -- -- 0 943.7 0.8 79
2018-09-13 10:00:00 18.8 0 Calma -- -- 0 943.3 0.4 92
2018-09-13 09:00:00 17.5 0 Calma 0 Calma 0 943.1 0.3 96
2018-09-13 08:00:00 17 0 Calma -- -- 0 942.9 0.2 95
2018-09-13 07:00:00 17.2 0 Calma -- -- 0 942.9 0.2 93
2018-09-13 06:00:00 17.7 0 Calma -- -- 0 942.8 -0.3 90
2018-09-13 05:00:00 18.7 0 Calma 8 Oeste 0 942.7 -0.8 93
2018-09-13 04:00:00 19.3 2 Sudoeste 7 Sudoeste 0 942.7 -1.2 93
2018-09-13 03:00:00 19.4 0 Calma 9 Nordeste 0 943.1 -1 90
2018-09-13 02:00:00 20.5 0 Calma 15 Norte 0 943.5 -1.3 87
2018-09-13 01:00:00 21.4 4 Sudeste 11 Este 0 943.9 0.1 81
2018-09-13 00:00:00 22.2 4 Sur 13 Norte 0 944.1 0.9 73
2018-09-12 23:00:00 22.6 0 Calma 12 Noroeste 0 944.8 1.5 70
2018-09-12 22:00:00 23 5 Sudoeste 16 Sudoeste 0 943.8 0.4 70
2018-09-12 21:00:00 24.1 4 Sur 14 Sur 0 943.2 -0.2 64
2018-09-12 20:00:00 24.2 0 Calma 10 Norte 0 943.3 -0.3 54
2018-09-12 19:00:00 25.1 3 Norte 20 Norte 0 943.4 -0.5 47
2018-09-12 18:00:00 27.3 6 Sudoeste 21 Sudoeste 0 943.4 -1.3 45
2018-09-12 17:00:00 26.8 4 Sur 17 Sudeste 0 943.6 -1.8 47
2018-09-12 16:00:00 27.1 5 Sudeste 16 Este 0 943.9 -2 50
2018-09-12 15:00:00 26.2 10 Sudeste 22 Sudeste 0 944.7 -1.7 52
2018-09-12 14:00:00 26.8 4 Sudeste 15 Sudeste 0 945.4 -0.4 53
2018-09-12 13:00:00 23.1 0 Calma 8 Sudoeste 0 945.9 0.1 69
2018-09-12 12:00:00 23 4 Sur 18 Sudoeste 0 946.4 0.9 68
2018-09-12 11:00:00 21.3 4 Sudeste 15 Sur 0 945.8 0.6 80
2018-09-12 10:00:00 19.5 4 Sudeste 14 Sur 0 945.8 0.7 95
2018-09-12 09:00:00 17.8 2 Sudeste 10 Este 0 945.5 0.4 95
2018-09-12 08:00:00 17.3 4 Este 11 Este 0 945.2 0.3 95
2018-09-12 07:00:00 17.3 4 Este 9 Este 0 945.1 -0.2 95
2018-09-12 06:00:00 17.3 0 Calma 4 Nordeste 0 945.1 -0.5 95
2018-09-12 05:00:00 17.3 0 Calma 5 Norte 0 944.9 -1.2 94
2018-09-12 04:00:00 17.7 0 Calma 3 Nordeste 0 945.3 -0.9 94
2018-09-12 03:00:00 17.9 0 Calma 7 Este 0 945.6 -0.6 92
2018-09-12 02:00:00 18.2 0 Calma 9 Este 0 946.1 0.5 92
2018-09-12 01:00:00 18.4 3 Nordeste 9 Nordeste 0 946.2 0.8 91
2018-09-12 00:00:00 19.2 0 Calma 5 Nordeste 0 946.2 1.1 89
2018-09-11 23:00:00 19.8 0 Calma 8 Este 0 945.6 0.9 87
2018-09-11 22:00:00 20.6 4 Nordeste 12 Este 0 945.4 1.1 85
2018-09-11 21:00:00 21.4 4 Este 17 Este 0 945.1 0.7 81
2018-09-11 20:00:00 22.4 5 Este 17 Este 0 944.7 -0.3 74
2018-09-11 19:00:00 23.4 4 Este 18 Este 0 944.3 -0.6 70
2018-09-11 18:00:00 23.1 5 Este 26 Este 0 944.4 -1 67
2018-09-11 17:00:00 23.8 8 Sudeste 27 Sudeste 0 945 -0.9 67
2018-09-11 16:00:00 25 7 Sudeste 24 Este 0 944.9 -1.3 56
2018-09-11 15:00:00 25.1 8 Sudeste 22 Sudeste 0 945.4 -1.3 53
2018-09-11 14:00:00 23.5 3 Nordeste 21 Este 0 945.9 -0.5 61
2018-09-11 13:00:00 24 4 Este 16 Este 0 946.2 -0.2 57
2018-09-11 12:00:00 21.1 2 Nordeste 13 Este 0 946.7 0.3 79
2018-09-11 11:00:00 17.3 4 Este 9 Este 0 946.4 0.4 96
2018-09-11 10:00:00 15.9 0 Calma 7 Este 0 946.4 0.3 96
2018-09-11 09:00:00 15.3 2 Este 7 Nordeste 0 946.4 0.4 96
2018-09-11 08:00:00 14.8 0 Calma 3 Este 0 946 -0.3 96
2018-09-11 07:00:00 15.3 0 Calma 3 Nordeste 0 946.1 0.1 96
2018-09-11 06:00:00 15.6 0 Calma 4 Nordeste 0 946 -0.1 95
2018-09-11 05:00:00 15.9 0 Calma 4 Este 0 946.3 0 95
2018-09-11 04:00:00 16 0 Calma -- -- 0 946 -0.2 94
2018-09-11 03:00:00 16.3 0 Calma 0 Calma 0 946.1 -0.5 94
2018-09-11 02:00:00 16.5 0 Calma 4 Norte 0 946.3 -0.2 92
2018-09-11 01:00:00 16.9 2 Este 8 Este 0 946.2 0.1 90
2018-09-11 00:00:00 17.5 2 Este 11 Este 0 946.6 1.2 87
2018-09-10 23:00:00 18.1 0 Calma 6 Nordeste 0 946.5 1.8 81
2018-09-10 22:00:00 19.1 2 Este 10 Nordeste 0 946.1 1.6 78
2018-09-10 21:00:00 20.4 4 Este 22 Este 0 945.4 1.1 68
2018-09-10 20:00:00 22 8 Este 24 Este 0 944.7 0.5 59
2018-09-10 19:00:00 23.7 9 Este 25 Nordeste 0 944.5 0 53
2018-09-10 18:00:00 24 9 Este 22 Nordeste 0 944.3 -0.4 53
2018-09-10 17:00:00 24.4 6 Este 25 Este 0 944.2 -0.8 50
2018-09-10 16:00:00 24.7 9 Este 22 Este 0 944.5 -0.9 52
2018-09-10 15:00:00 24.5 6 Este 16 Este 0 944.7 -1.2 53
2018-09-10 14:00:00 23 4 Nordeste 22 Este 0 945 -1.2 57
2018-09-10 13:00:00 22 6 Este 18 Norte 0 945.4 -0.3 67
2018-09-10 12:00:00 20.1 4 Nordeste 14 Este 0 945.9 0.9 80
2018-09-10 11:00:00 17.8 3 Oeste 8 Noroeste 0 946.2 1.7 93
2018-09-10 10:00:00 16.9 0 Calma 5 Oeste 0.1 945.7 1.8 96
2018-09-10 09:00:00 16.1 0 Calma 3 Oeste 0 945 2.1 96
2018-09-10 08:00:00 15.6 0 Calma 7 Noroeste 0 944.5 1 96
2018-09-10 07:00:00 15.3 0 Calma 11 Oeste 0 943.9 -1.1 96
2018-09-10 06:00:00 15.2 2 Sudeste 10 Sudeste 0.2 942.9 -1.6 96
2018-09-10 05:00:00 15.3 2 Este 17 Este 6.2 943.5 -1.2 96
2018-09-10 04:00:00 16.1 6 Este 15 Este 7 945 0.7 95
2018-09-10 03:00:00 16.1 4 Nordeste 20 Noroeste 4.2 944.5 0.6 95
2018-09-10 02:00:00 16.2 3 Noroeste 24 Noroeste 6.3 944.7 1.5 94
2018-09-10 01:00:00 17 5 Noroeste 32 Oeste 1.1 944.3 1.5 96
2018-09-10 00:00:00 18.7 0 Calma 11 Nordeste 0 943.9 1.4 96
2018-09-09 23:00:00 18.5 2 Nordeste 8 Este 0 943.2 2.1 96
2018-09-09 22:00:00 18 3 Este 6 Este 0.1 942.8 1.6 96
2018-09-09 21:00:00 17.6 3 Oeste 18 Sudeste 6.5 942.5 1.9 94
2018-09-09 20:00:00 16.7 17 Sudeste 35 Este 4.6 941.1 0.4 89
2018-09-09 19:00:00 18.6 0 Calma 52 Este 3.9 941.2 -0.1 79
2018-09-09 18:00:00 24.9 0 Calma 10 Este 0 940.6 -1.6 50
2018-09-09 17:00:00 24.9 3 Este 10 Norte 0 940.7 -2 51
2018-09-09 16:00:00 24.3 0 Calma 9 Sur 0 941.3 -2 54
2018-09-09 15:00:00 23.7 2 Este 9 Sudeste 0 942.2 -1.5 57
2018-09-09 14:00:00 23.4 0 Calma 9 Sudoeste 0 942.7 -1 60
2018-09-09 13:00:00 22.2 3 Sudoeste 12 Sudoeste 0 943.3 0 64
2018-09-09 12:00:00 20 3 Sudoeste 11 Oeste 0 943.7 0.9 80
2018-09-09 11:00:00 16.9 4 Este 9 Nordeste 0 943.7 1.6 98
2018-09-09 10:00:00 16.1 0 Calma 7 Nordeste 0 943.3 1.4 98
2018-09-09 09:00:00 15.3 0 Calma 4 Nordeste 0 942.8 0.9 98
2018-09-09 08:00:00 14.6 0 Calma 5 Este 0 942.1 0.1 98
2018-09-09 07:00:00 14.8 0 Calma 5 Este 0 941.9 -0.7 95
2018-09-09 06:00:00 15.7 0 Calma 4 Sudeste 0 941.9 -0.7 97
2018-09-09 05:00:00 16.6 0 Calma 8 Sudeste 0 942 -0.4 97
2018-09-09 04:00:00 16.7 5 Sudeste 14 Sudeste 0 942.6 -0.1 97
2018-09-09 03:00:00 16.2 0 Calma 7 Este 0 942.6 0.8 92
2018-09-09 02:00:00 16.6 0 Calma 7 Este 0 942.4 0.8 91
2018-09-09 01:00:00 17.4 0 Calma 9 Sudeste 0 942.7 1.3 90
2018-09-09 00:00:00 17.8 2 Sudeste 15 Sudeste 0 941.8 0.7 86
2018-09-08 23:00:00 18.1 3 Sudeste 17 Este 0 941.6 -0.2 84
2018-09-08 22:00:00 18.7 6 Sudeste 14 Sudeste 0 941.4 0.4 82
2018-09-08 21:00:00 18.8 5 Sudeste 19 Sudeste 0.2 941.1 0.3 78
2018-09-08 20:00:00 20.4 5 Sur 15 Sudoeste 0 941.8 0.6 64
2018-09-08 19:00:00 21.4 4 Sudoeste 14 Sudeste 0 941 0.5 57
2018-09-08 18:00:00 22 5 Sudeste 15 Sudeste 0 940.8 -0.6 52
2018-09-08 17:00:00 22.2 0 Calma 23 Sudeste 0 941.2 -0.1 57
2018-09-08 16:00:00 21.5 7 Sudeste 26 Sudeste 0 940.5 -0.7 60
2018-09-08 15:00:00 21.3 8 Sudeste 24 Sudoeste 0 941.4 0.5 58
2018-09-08 14:00:00 22 8 Sudeste 27 Sudeste 0 941.3 -1.1 55
2018-09-08 13:00:00 20.5 9 Sudoeste 42 Sudeste 0 941.2 -1.3 64
2018-09-08 12:00:00 19.2 13 Sudeste 45 Sudeste 0 940.9 0 76
2018-09-08 11:00:00 18.7 11 Sudeste 26 Sudeste 0 942.4 1.7 80
2018-09-08 10:00:00 18 8 Sur 19 Sudoeste 0 942.5 2.8 87
2018-09-08 09:00:00 17.1 4 Este 12 Sudeste 0 940.9 1.2 92
2018-09-08 08:00:00 16.2 3 Sudeste 10 Este 0 940.7 0.9 95
2018-09-08 07:00:00 15.9 0 Calma 8 Este 0 939.7 -0.2 94
2018-09-08 06:00:00 16.5 3 Este 10 Este 0 939.7 -0.3 94
2018-09-08 05:00:00 17.1 0 Calma 6 Este 0 939.8 -0.8 90
2018-09-08 04:00:00 18.2 2 Este 10 Nordeste 0 939.9 -1 87
2018-09-08 03:00:00 18.9 3 Este 10 Este 0 940 -0.5 81
2018-09-08 02:00:00 19.5 2 Este 14 Nordeste 0 940.6 0.9 78
2018-09-08 01:00:00 20.1 7 Sudeste 20 Sudeste 0 940.9 2 75
2018-09-08 00:00:00 20.8 5 Este 17 Este 0 940.5 2.6 73
2018-09-07 23:00:00 21.6 5 Este 24 Este 0 939.7 2.3 72
2018-09-07 22:00:00 22.4 7 Este 26 Este 0 938.9 1.9 68
2018-09-07 21:00:00 24 5 Este 24 Sudeste 0 937.9 1.1 54
2018-09-07 20:00:00 26.2 8 Este 27 Sudeste 0 937.4 0.3 39
2018-09-07 19:00:00 28 6 Sudeste 22 Este 0 937 -0.2 31
2018-09-07 18:00:00 29 6 Sudeste 28 Sudeste 0 936.8 -0.9 30
2018-09-07 17:00:00 29.1 8 Sudeste 27 Sudoeste 0 937.1 -1.2 31
2018-09-07 16:00:00 28.7 7 Sur 25 Sur 0 937.2 -1.5 33
2018-09-07 15:00:00 28.5 7 Sudeste 28 Sur 0 937.7 -1.4 36
2018-09-07 14:00:00 27.1 8 Sudeste 26 Sudoeste 0 938.3 -1 40
2018-09-07 13:00:00 25.5 9 Sudeste 27 Sudeste 0 938.7 -0.5 48
2018-09-07 12:00:00 24.3 9 Sudeste 25 Sudeste 0 939.1 0.2 57
2018-09-07 11:00:00 22 4 Este 19 Sudeste 0 939.3 0.7 70
2018-09-07 10:00:00 19.9 4 Sudeste 14 Sudeste 0 939.2 1.1 85
2018-09-07 09:00:00 18.4 3 Este 12 Sudeste 0 938.9 0.7 93
2018-09-07 08:00:00 17.7 0 Calma 6 Este 0 938.6 0.7 92
2018-09-07 07:00:00 17.9 2 Este 7 Este 0 938.1 0.2 92
2018-09-07 06:00:00 18.3 3 Este 9 Nordeste 0 938.2 0.1 92
2018-09-07 05:00:00 18.7 4 Este 11 Este 0 937.9 0 90
2018-09-07 04:00:00 19.3 2 Nordeste 9 Este 0 937.9 0 87
2018-09-07 03:00:00 20.5 4 Nordeste 10 Nordeste 0 938.1 0.1 78
2018-09-07 02:00:00 21.5 5 Sudeste 17 Sudoeste 0 937.9 0.2 66
2018-09-07 01:00:00 22.3 5 Sudeste 15 Sur 0 937.9 0.7 57
2018-09-07 00:00:00 22.6 9 Sudeste 21 Sudeste 0 938 1.2 57
2018-09-06 23:00:00 22.3 0 Calma 2 Este 0 937.7 1.7 44
2018-09-06 22:00:00 23.3 0 Calma 4 Oeste 0 937.2 1 40
2018-09-06 21:00:00 24.6 0 Calma 9 Norte 0 936.8 0.8 37
2018-09-06 20:00:00 26.4 2 Noroeste 14 Oeste 0 936 -0.3 34
2018-09-06 19:00:00 27.3 3 Oeste 15 Oeste 0 936.2 -0.5 32
2018-09-06 18:00:00 27.5 4 Oeste 17 Sudoeste 0 936 -1.2 32
2018-09-06 17:00:00 28.3 5 Oeste 18 Sudoeste 0 936.3 -0.9 32
2018-09-06 16:00:00 27.7 5 Oeste 17 Oeste 0 936.7 -1 32
2018-09-06 15:00:00 27.4 2 Noroeste 17 Sudoeste 0 937.2 -0.9 33
2018-09-06 14:00:00 26.3 5 Oeste 19 Oeste 0 937.2 -0.9 35
2018-09-06 13:00:00 25.5 2 Noroeste 15 Norte 0 937.7 -0.5 41
2018-09-06 12:00:00 23.4 6 Oeste 15 Oeste 0 938.1 0 49
2018-09-06 11:00:00 20.7 6 Oeste 16 Oeste 0 938.1 0.4 61
2018-09-06 10:00:00 18.2 5 Oeste 12 Oeste 0 938.2 0.8 70
2018-09-06 09:00:00 16.7 4 Oeste 10 Oeste 0 938.1 1 74
2018-09-06 08:00:00 16.6 2 Oeste 11 Oeste 0 937.7 0.8 72
2018-09-06 07:00:00 17.1 4 Sudoeste 13 Sudoeste 0 937.4 0.3 70
2018-09-06 06:00:00 17.4 5 Oeste 14 Sudoeste 0 937.1 -0.3 68
2018-09-06 05:00:00 17.7 5 Sudoeste 15 Oeste 0 936.9 -0.7 65
2018-09-06 04:00:00 18.5 8 Oeste 18 Oeste 0 937.1 -0.5 60
2018-09-06 03:00:00 19.6 5 Oeste 21 Sudoeste 0 937.4 -0.3 54
2018-09-06 02:00:00 20.3 8 Oeste 21 Sudoeste 0 937.6 0.2 48
2018-09-06 01:00:00 20.8 6 Oeste 18 Oeste 0 937.6 0.6 42
2018-09-06 00:00:00 22.3 5 Oeste 16 Oeste 0 937.7 1.7 35
2018-09-05 23:00:00 23 4 Sudoeste 12 Sudoeste 0 937.4 1.7 32
2018-09-05 22:00:00 24.5 4 Oeste 15 Oeste 0 937 1.4 31
2018-09-05 21:00:00 25.9 5 Oeste 17 Oeste 0 936 0.1 28
2018-09-05 20:00:00 27.5 7 Oeste 23 Oeste 0 935.7 -0.5 25
2018-09-05 19:00:00 28.5 8 Oeste 20 Oeste 0 935.6 -1.1 25
2018-09-05 18:00:00 29.3 6 Sudoeste 24 Sudoeste 0 935.9 -1.4 28
2018-09-05 17:00:00 29.3 8 Oeste 21 Oeste 0 936.2 -1.9 31
2018-09-05 16:00:00 29 4 Oeste 19 Oeste 0 936.7 -1.9 33
2018-09-05 15:00:00 29.3 4 Este 11 Este 0 937.3 -1.8 35
2018-09-05 14:00:00 27.2 3 Sudoeste 13 Oeste 0 938.1 -1.3 38
2018-09-05 13:00:00 26.4 3 Nordeste 12 Oeste 0 938.6 -0.6 43
2018-09-05 12:00:00 23.5 5 Oeste 17 Oeste 0 939.1 0.4 50
2018-09-05 11:00:00 21.2 3 Oeste 12 Oeste 0 939.4 1 58
2018-09-05 10:00:00 19.2 3 Sudoeste 13 Sudoeste 0 939.2 1 68
2018-09-05 09:00:00 18.2 4 Oeste 12 Oeste 0 938.7 0.8 71
2018-09-05 08:00:00 17.6 6 Oeste 13 Noroeste 0 938.4 1 72
2018-09-05 07:00:00 18.1 0 Calma 8 Oeste 0 938.2 1 68
2018-09-05 06:00:00 19.1 3 Oeste 14 Sudoeste 0 937.9 0.5 64
2018-09-05 05:00:00 19.4 0 Calma 8 Oeste 0 937.4 -0.3 73
2018-09-05 04:00:00 20.9 0 Calma 8 Sudoeste 0 937.2 -0.4 93
2018-09-05 03:00:00 21.7 0 Calma 14 Sur 0 937.4 0.1 90
2018-09-05 02:00:00 22.2 4 Sur 13 Sudoeste 0 937.7 1.1 88
2018-09-05 01:00:00 22.7 2 Sur 17 Sudoeste 0 937.6 1.5 86
2018-09-05 00:00:00 23.1 4 Sur 16 Sudoeste 0 937.3 2 82
2018-09-04 23:00:00 23.9 6 Sur 19 Sur 0 936.6 1.7 67
2018-09-04 22:00:00 25 4 Sur 19 Nordeste 0 936.1 1.2 54
2018-09-04 21:00:00 26.4 0 Calma 8 Sudoeste 0 935.3 0.4 37
2018-09-04 20:00:00 27.7 3 Sudeste 14 Sudoeste 0 934.9 0 34
2018-09-04 19:00:00 28.5 6 Sudeste 21 Sudoeste 0 934.9 -0.6 33
2018-09-04 18:00:00 29.8 8 Sudeste 21 Sudeste 0 934.9 -1 31
2018-09-04 17:00:00 31.2 4 Sur 19 Sudeste 0 934.9 -1.6 30
2018-09-04 16:00:00 31 4 Este 13 Este 0 935.5 -1.4 33
2018-09-04 15:00:00 29.9 3 Sudeste 16 Este 0 935.9 -1.3 35
2018-09-04 14:00:00 28.8 3 Este 12 Sudeste 0 936.5 -0.9 39
2018-09-04 13:00:00 26.6 4 Oeste 11 Noroeste 0 936.9 -0.2 45
2018-09-04 12:00:00 24.2 2 Noroeste 9 Oeste 0 937.2 0 50
2018-09-04 11:00:00 21.5 2 Sudoeste 11 Sudoeste 0 937.4 0.6 67
2018-09-04 10:00:00 19.9 2 Sur 8 Sudoeste 0 937.1 0.7 89
2018-09-04 09:00:00 19 3 Sur 9 Sudeste 0 937.2 0.7 94
2018-09-04 08:00:00 19 0 Calma 13 Sudoeste 0 936.8 0.3 93
2018-09-04 07:00:00 19.2 5 Sur 15 Sur 0 936.4 -0.1 94
2018-09-04 06:00:00 19.4 2 Sur 16 Sur 0 936.5 -0.1 93
2018-09-04 05:00:00 19.7 6 Sur 16 Sudoeste 0 936.5 -0.2 92
2018-09-04 04:00:00 20 4 Sur 24 Sudoeste 0 936.5 -0.2 92
2018-09-04 03:00:00 20.3 6 Sur 20 Sur 0 936.6 -0.2 88
2018-09-04 02:00:00 20.8 4 Sur 19 Sur 0 936.7 -0.8 81
2018-09-04 01:00:00 21.4 5 Sur 22 Sur 0 936.7 0 82
2018-09-04 00:00:00 22.1 5 Sur 21 Sudeste 0 936.8 1.5 74
2018-09-03 23:00:00 22.2 4 Sudoeste 17 Sudeste 0 937.5 2.6 69
2018-09-03 22:00:00 22.2 2 Este 10 Sudeste 0 936.7 1.3 66
2018-09-03 21:00:00 23.5 3 Sudeste 16 Sur 0 935.3 -0.5 61
2018-09-03 20:00:00 24.3 3 Sur 25 Sur 0 934.9 -0.8 57
2018-09-03 19:00:00 22.6 0 Calma 9 Sudoeste 0 935.4 0.5 92
2018-09-03 18:00:00 22.2 2 Noroeste 13 Oeste 1.3 935.8 0 88
2018-09-03 17:00:00 24.3 3 Sudoeste 19 Sudoeste 1.6 935.7 -1.1 72
2018-09-03 16:00:00 29.5 5 Nordeste 17 Este 0 934.9 -2.7 40
2018-09-03 15:00:00 30.9 5 Este 18 Nordeste 0 935.8 -1.9 40
2018-09-03 14:00:00 28.3 2 Nordeste 9 Este 0 936.8 -1.2 47
2018-09-03 13:00:00 27.3 2 Nordeste 11 Oeste 0 937.6 -0.3 47
2018-09-03 12:00:00 23.6 0 Calma 16 Sudoeste 0.5 937.7 0.2 79
2018-09-03 11:00:00 24 9 Oeste 22 Oeste 0 938 0.7 62
2018-09-03 10:00:00 21.4 0 Calma 9 Sudoeste 0.1 937.9 1.2 92
2018-09-03 09:00:00 20.4 0 Calma 10 Este 0.3 937.5 0.9 94
2018-09-03 08:00:00 20 2 Nordeste 11 Este 0 937.3 1 88
2018-09-03 07:00:00 20.8 5 Este 14 Este 0.1 936.7 0.1 84
2018-09-03 06:00:00 21.5 3 Este 18 Sur 0 936.6 -0.5 80
2018-09-03 05:00:00 22.3 6 Sur 21 Sur 0 936.3 -1.2 74
2018-09-03 04:00:00 23.1 5 Sur 29 Sudeste 0 936.6 -1.6 67
2018-09-03 03:00:00 23.6 6 Sur 16 Sur 0 937.1 -0.6 64
2018-09-03 02:00:00 23.9 6 Este 15 Este 0 937.5 0 63
2018-09-03 01:00:00 25.4 6 Sur 33 Oeste 0.4 938.2 0.8 52
2018-09-03 00:00:00 25.8 6 Sur 22 Sudoeste 0 937.7 0.6 54
2018-09-02 23:00:00 26.7 7 Sur 19 Sur 0 937.5 0.4 50
2018-09-02 22:00:00 27.7 5 Sur 18 Sudoeste 0 937.4 0.4 45
2018-09-02 21:00:00 29.1 5 Sudeste 21 Sudeste 0 937.1 -0.1 40
2018-09-02 20:00:00 30.6 4 Sur 22 Sur 0 937.1 -0.5 33
2018-09-02 19:00:00 31.8 5 Sur 24 Sudoeste 0 937 -1.1 31
2018-09-02 18:00:00 33.2 9 Sur 23 Sur 0 937.2 -1.6 29
2018-09-02 17:00:00 34.7 3 Nordeste 21 Nordeste 0 937.6 -1.9 29
2018-09-02 16:00:00 34.7 8 Sudeste 18 Sudeste 0 938.1 -2 28
2018-09-02 15:00:00 33.8 6 Sudoeste 15 Sudoeste 0 938.8 -1.8 30
2018-09-02 14:00:00 32.3 2 Nordeste 12 Sudeste 0 939.5 -1.2 33
2018-09-02 13:00:00 30.8 3 Este 13 Sudeste 0 940.1 -0.6 38
2018-09-02 12:00:00 27.6 7 Sudeste 20 Sudoeste 0 940.6 0.3 49
2018-09-02 11:00:00 23.9 5 Sur 20 Sudoeste 0 940.7 0.4 63
2018-09-02 10:00:00 21.3 5 Sudeste 23 Sudeste 0 940.7 0.5 80
2018-09-02 09:00:00 19.6 5 Sudeste 17 Sudeste 0 940.3 0 90
2018-09-02 08:00:00 19.3 4 Sudeste 18 Sur 0 940.3 -0.2 90
2018-09-02 07:00:00 19.1 5 Sudeste 17 Sudeste 0 940.2 -0.7 84
2018-09-02 06:00:00 19.5 5 Sudeste 17 Sudeste 0 940.3 -0.9 76
2018-09-02 05:00:00 20 6 Sudeste 21 Sudeste 0 940.5 -0.9 74
2018-09-02 04:00:00 20.5 6 Este 18 Este 0 940.9 0 74
2018-09-02 03:00:00 21.1 5 Este 17 Sudeste 0 941.2 0.4 72
2018-09-02 02:00:00 21.8 4 Sudeste 17 Sudeste 0 941.4 0.9 66
2018-09-02 01:00:00 22.8 10 Sudeste 26 Sudeste 0 940.9 0.8 59
2018-09-02 00:00:00 23.7 10 Sudeste 23 Este 0 940.8 1.3 58
2018-09-01 23:00:00 24.8 9 Sudeste 21 Este 0 940.5 1.1 54
2018-09-01 22:00:00 26.3 6 Sudeste 19 Sudeste 0 940.1 0.7 50
2018-09-01 21:00:00 27.7 5 Sudeste 20 Sudeste 0 939.5 0.2 43
2018-09-01 20:00:00 29.4 8 Sudeste 21 Sudeste 0 939.4 -0.2 39
2018-09-01 19:00:00 30.8 7 Sudeste 25 Sudeste 0 939.4 -0.7 35
2018-09-01 18:00:00 31.7 5 Sur 23 Sudoeste 0 939.3 -1.4 32
2018-09-01 17:00:00 32.5 6 Sudeste 25 Sudeste 0 939.6 -1.6 33
2018-09-01 16:00:00 31.8 6 Sur 24 Sudoeste 0 940.1 -1.7 34
2018-09-01 15:00:00 31.3 10 Sudeste 26 Sudeste 0 940.7 -1.8 36
2018-09-01 14:00:00 29.6 6 Sur 22 Sudeste 0 941.2 -1.3 37
2018-09-01 13:00:00 28 6 Sudeste 23 Sudoeste 0 941.8 -0.6 43
2018-09-01 12:00:00 25.8 8 Sudeste 24 Sudeste 0 942.5 0.4 53
2018-09-01 11:00:00 23 7 Sudeste 20 Sudeste 0 942.5 0.6 68
2018-09-01 10:00:00 21.2 10 Sudeste 21 Sudeste 0 942.4 0.9 80
2018-09-01 09:00:00 19.8 5 Sudeste 13 Sudeste 0 942.1 0.8 92
2018-09-01 08:00:00 18.6 4 Este 9 Este 0 941.9 0.4 87
2018-09-01 07:00:00 19.8 0 Calma 15 Este 0 941.5 -0.1 87
2018-09-01 06:00:00 20.7 4 Sudeste 14 Este 0 941.3 -0.2 87
2018-09-01 05:00:00 20.7 4 Sudeste 16 Este 0 941.5 -0.2 87
2018-09-01 04:00:00 20.7 4 Este 10 Este 0 941.6 -0.3 86
2018-09-01 03:00:00 21.1 3 Este 11 Este 0 941.5 -0.1 84
2018-09-01 02:00:00 21.8 4 Este 14 Este 0 941.7 0.3 80
2018-09-01 01:00:00 22.4 3 Este 12 Este 0 941.9 1.4 77
2018-09-01 00:00:00 22.7 2 Este 12 Este 0 941.6 2 67
2018-08-31 23:00:00 24.8 4 Este 20 Sur 0 941.4 2.5 60
2018-08-31 22:00:00 26.3 8 Sudeste 22 Sur 0 940.5 1.5 50
2018-08-31 21:00:00 28.7 6 Sudeste 20 Sudoeste 0 939.6 0.3 37
2018-08-31 20:00:00 30.4 6 Sur 19 Sur 0 938.9 -0.5 31
2018-08-31 19:00:00 31.8 4 Sudeste 16 Sudeste 0 939 -1.2 30
2018-08-31 18:00:00 32.7 4 Sur 18 Sudeste 0 939.3 -1.2 28
2018-08-31 17:00:00 33.2 0 Calma 18 Sudoeste 0 939.4 -1.9 27
2018-08-31 16:00:00 32.1 4 Sur 16 Sudoeste 0 940.2 -1.3 30
2018-08-31 15:00:00 31.7 4 Sudeste 14 Sudeste 0 940.5 -1.2 33
2018-08-31 14:00:00 30.7 4 Sudeste 17 Nordeste 0 941.3 -0.6 38
2018-08-31 13:00:00 28.9 5 Sudeste 20 Este 0 941.5 -0.3 47
2018-08-31 12:00:00 26.6 5 Sudeste 14 Sudeste 0 941.7 0.1 54
2018-08-31 11:00:00 22.6 3 Sur 13 Oeste 0 941.9 0.7 83
2018-08-31 10:00:00 19.7 5 Este 11 Este 0 941.8 0.7 96
2018-08-31 09:00:00 18.8 4 Este 12 Este 0 941.6 0.7 94
2018-08-31 08:00:00 19.5 4 Este 10 Este 0 941.2 0 93
2018-08-31 07:00:00 19.9 3 Este 11 Sudeste 0 941.1 -0.3 90
2018-08-31 06:00:00 20.4 3 Este 12 Sudeste 0 940.9 -0.9 87
2018-08-31 05:00:00 21 3 Sudeste 17 Sudeste 0 941.2 -1 85
2018-08-31 04:00:00 21.2 5 Sudeste 19 Sudeste 0 941.4 -0.5 87
2018-08-31 03:00:00 21.4 4 Este 18 Sudeste 0 941.8 -0.1 87
2018-08-31 02:00:00 21.8 6 Sudeste 18 Este 0 942.2 0.4 87
2018-08-31 01:00:00 22.7 6 Sudeste 18 Este 0 941.9 0.5 79
2018-08-31 00:00:00 23.7 7 Sudeste 16 Este 0 941.9 1.2 71
2018-08-30 23:00:00 24.6 3 Sudeste 17 Sudeste 0 941.8 1.3 63
2018-08-30 22:00:00 25.6 6 Sudeste 19 Sur 0 941.4 0.9 58
2018-08-30 21:00:00 26.9 6 Sudeste 16 Sudeste 0 940.7 0.1 47
2018-08-30 20:00:00 28.3 5 Sudeste 19 Sudeste 0 940.5 -0.6 41
2018-08-30 19:00:00 29.9 8 Sudeste 20 Sudeste 0 940.5 -1 35
2018-08-30 18:00:00 30.4 5 Sudeste 23 Sudeste 0 940.6 -1.5 35
2018-08-30 17:00:00 30.5 8 Sudeste 28 Sudeste 0 941.1 -1.4 37
2018-08-30 16:00:00 30.1 5 Sur 29 Sudeste 0 941.5 -1.4 39
2018-08-30 15:00:00 28.4 7 Sur 22 Sudeste 0 942.1 -1.4 43
2018-08-30 14:00:00 28.4 8 Sudeste 26 Sur 0 942.5 -0.9 46
2018-08-30 13:00:00 27.2 7 Sudeste 20 Sudeste 0 942.9 -0.3 49
2018-08-30 12:00:00 25.1 10 Sudeste 20 Sudeste 0 943.5 0.6 58
2018-08-30 11:00:00 23.1 6 Sudeste 22 Este 0 943.4 1.2 70
2018-08-30 10:00:00 21.3 8 Sudeste 15 Sudeste 0 943.2 1.4 81
2018-08-30 09:00:00 19.7 4 Sudeste 16 Sudeste 0 942.9 0.8 93
2018-08-30 08:00:00 19 0 Calma 9 Oeste 0 942.2 0.6 94
2018-08-30 07:00:00 19.1 3 Oeste 7 Oeste 0 941.8 0.4 94
2018-08-30 06:00:00 19.1 0 Calma 9 Este 0 942.1 0.4 90
2018-08-30 05:00:00 19.7 2 Este 11 Este 0 941.6 -0.5 88
2018-08-30 04:00:00 20.5 3 Este 15 Este 0 941.4 -0.9 87
2018-08-30 03:00:00 21.2 7 Este 18 Este 0 941.7 0.9 86
2018-08-30 02:00:00 21.6 4 Este 21 Este 0 942.1 1.2 80
2018-08-30 01:00:00 22.2 6 Nordeste 18 Este 0 942.3 1.4 73
2018-08-30 00:00:00 23.3 3 Este 24 Sudeste 0 940.8 1.3 65
2018-08-29 23:00:00 22.9 5 Sur 33 Sudeste 0 940.9 2.3 57
2018-08-29 22:00:00 24.2 10 Sudeste 31 Sudeste 0 940.9 2.6 58
2018-08-29 21:00:00 27.6 9 Nordeste 26 Este 0 939.5 1.3 41
2018-08-29 20:00:00 30.9 0 Calma 7 Oeste 0 938.6 -0.1 32
2018-08-29 19:00:00 31.5 3 Oeste 11 Oeste 0 938.3 -0.8 30
2018-08-29 18:00:00 32.6 4 Oeste 15 Sudoeste 0 938.2 -1.6 30
2018-08-29 17:00:00 32.7 2 Oeste 12 Oeste 0 938.7 -1.1 29
2018-08-29 16:00:00 32.3 3 Noroeste 13 Este 0 939.1 -1.4 30
2018-08-29 15:00:00 31.2 3 Oeste 15 Oeste 0 939.8 -0.9 32
2018-08-29 14:00:00 29.8 3 Oeste 13 Oeste 0 939.8 -0.9 35
2018-08-29 13:00:00 27.9 6 Oeste 18 Sudoeste 0 940.5 0.1 43
2018-08-29 12:00:00 25.9 5 Noroeste 15 Oeste 0 940.7 0.6 51
2018-08-29 11:00:00 23.5 4 Oeste 10 Oeste 0 940.7 0.9 60
2018-08-29 10:00:00 21.9 3 Sudoeste 12 Sur 0 940.4 1 61
2018-08-29 09:00:00 20.7 3 Sur 9 Sur 0 940.1 0.8 61
2018-08-29 08:00:00 20.2 4 Sur 14 Sur 0 939.8 0.6 61
2018-08-29 07:00:00 20.2 0 Calma 12 Sudoeste 0 939.4 -0.1 62
2018-08-29 06:00:00 20.6 3 Sur 16 Sur 0 939.3 -0.1 61
2018-08-29 05:00:00 20.9 5 Sudeste 17 Sudeste 0 939.2 -0.1 60
2018-08-29 04:00:00 21.1 4 Sur 19 Sudeste 0 939.5 0.4 59
2018-08-29 03:00:00 21.4 6 Sudeste 21 Sur 0 939.4 0.1 61
2018-08-29 02:00:00 21.6 5 Sudeste 24 Sudeste 0 939.3 -0.1 62
2018-08-29 01:00:00 22.4 8 Sudeste 23 Sudeste 0 939.1 0.4 59
2018-08-29 00:00:00 22.9 9 Sudeste 23 Sudeste 0 939.3 1.2 65
2018-08-28 23:00:00 22.2 2 Sudeste 27 Oeste 1.5 939.4 1 79
2018-08-28 22:00:00 25.9 8 Sur 35 Sudeste 0.3 938.7 1.3 41
2018-08-28 21:00:00 24.8 9 Sur 39 Sur 0.4 938.1 -0.2 50
2018-08-28 20:00:00 29.3 12 Sur 37 Sur 0 938.4 -0.6 36
2018-08-28 19:00:00 30.7 5 Sudeste 31 Sur 0 937.4 -2.2 32
2018-08-28 18:00:00 32.5 9 Sur 23 Sudeste 0 938.3 -1.5 29
2018-08-28 17:00:00 30.9 5 Sudeste 17 Sudeste 0 939 -1.5 29
2018-08-28 16:00:00 32.1 5 Sudeste 24 Sudeste 0 939.6 -1.3 27
2018-08-28 15:00:00 33.5 4 Sudeste 23 Este 0 939.8 -1.4 28
2018-08-28 14:00:00 32.1 6 Sudeste 16 Sudoeste 0 940.5 -0.3 33
2018-08-28 13:00:00 28.7 6 Sur 22 Sudoeste 0 940.9 0.1 42
2018-08-28 12:00:00 27.6 10 Sudeste 21 Este 0 941.2 0.6 46
2018-08-28 11:00:00 26.1 4 Sudeste 15 Sudeste 0 940.8 0.4 52
2018-08-28 10:00:00 23.9 4 Sudeste 14 Sudeste 0 940.8 0.7 59
2018-08-28 09:00:00 21.7 4 Sudeste 17 Sudeste 0 940.6 0.7 72
2018-08-28 08:00:00 21 4 Sudeste 21 Sudeste 0 940.4 0.4 79
2018-08-28 07:00:00 21 6 Sudeste 19 Sudeste 0 940.1 0.3 80
2018-08-28 06:00:00 21.6 6 Sudeste 22 Sudeste 0 939.9 0 78
2018-08-28 05:00:00 21.9 5 Sudeste 21 Sudeste 0 940 0.1 78
2018-08-28 04:00:00 22.4 9 Sudeste 23 Sudeste 0 939.8 0.8 75
2018-08-28 03:00:00 23 8 Sudeste 28 Este 0 939.9 -0.8 70
2018-08-28 02:00:00 24.1 13 Sudeste 30 Sudeste 0 939.9 -0.6 61
2018-08-28 01:00:00 24.6 9 Este 24 Sur 0 939 -0.9 64
2018-08-28 00:00:00 25.1 7 Sur 25 Sudeste 0 940.7 1.5 58
2018-08-27 23:00:00 26.2 5 Sudeste 20 Sur 0 940.5 2 51
2018-08-27 22:00:00 27.3 5 Sudoeste 18 Sur 0 939.9 1.5 45
2018-08-27 21:00:00 29.1 4 Sur 20 Sudoeste 0 939.2 0.7 38
2018-08-27 20:00:00 31 6 Sur 23 Sudeste 0 938.5 -0.2 30
2018-08-27 19:00:00 32.8 5 Sudeste 24 Sur 0 938.4 -0.7 26
2018-08-27 18:00:00 34.1 9 Sudeste 22 Sudoeste 0 938.5 -1.1 24
2018-08-27 17:00:00 34.5 6 Sudeste 26 Sudeste 0 938.7 -1.4 23
2018-08-27 16:00:00 33.8 8 Sudeste 22 Sudeste 0 939.1 -1 28
2018-08-27 15:00:00 32.4 6 Sudeste 24 Sudoeste 0 939.6 -0.7 36
2018-08-27 14:00:00 29.6 8 Sur 22 Sudeste 0 940.1 -0.1 42
2018-08-27 13:00:00 28.1 8 Sudeste 24 Sudeste 0 940.1 0.1 49
2018-08-27 12:00:00 26.1 5 Sudeste 21 Sur 0 940.3 0.5 57
2018-08-27 11:00:00 23 6 Sudeste 17 Este 0 940.2 0.9 74
2018-08-27 10:00:00 19.7 4 Nordeste 10 Este 0 940 1.1 97
2018-08-27 09:00:00 18.5 3 Este 8 Este 0 939.8 1.2 97
2018-08-27 08:00:00 18.1 4 Este 10 Este 0 939.3 0.8 95
2018-08-27 07:00:00 20.1 5 Este 15 Sudeste 0 938.9 0.3 94
2018-08-27 06:00:00 20.8 6 Sudeste 19 Sudeste 0 938.6 -0.1 93
2018-08-27 05:00:00 21 7 Sudeste 17 Sudeste 0 938.5 -0.4 94
2018-08-27 04:00:00 21.3 7 Sudeste 19 Sudeste 0 938.6 0 91
2018-08-27 03:00:00 21.7 3 Este 11 Este 0 938.7 0.4 84
2018-08-27 02:00:00 22.6 3 Este 17 Sudeste 0 938.9 0.7 81
2018-08-27 01:00:00 23.4 6 Sudeste 22 Sudeste 0 938.6 0.7 75
2018-08-27 00:00:00 24.5 6 Sur 20 Sur 0 938.3 0.9 69
2018-08-26 23:00:00 25.3 6 Sur 23 Sur 0 938.2 1.4 63
2018-08-26 22:00:00 26.5 9 Sur 22 Sur 0 937.9 1.2 54
2018-08-26 21:00:00 29.1 6 Sur 19 Sudoeste 0 937.4 0.6 40
2018-08-26 20:00:00 31.1 4 Sur 20 Sudoeste 0 936.8 -0.3 32
2018-08-26 19:00:00 32.2 6 Sudoeste 17 Sudoeste 0 936.7 -0.9 28
2018-08-26 18:00:00 33.2 4 Sudoeste 17 Oeste 0 936.8 -1.3 26
2018-08-26 17:00:00 33.5 6 Sudoeste 18 Sudoeste 0 937.1 -1.6 25
2018-08-26 16:00:00 33.2 4 Sudoeste 19 Sur 0 937.6 -1.7 28
2018-08-26 15:00:00 31.9 4 Este 18 Sudeste 0 938.1 -1.7 31
2018-08-26 14:00:00 29.9 7 Sur 23 Sudoeste 0 938.7 -1.2 39
2018-08-26 13:00:00 27.9 8 Sudeste 23 Este 0 939.3 -0.3 48
2018-08-26 12:00:00 25.7 8 Sudeste 22 Sudeste 0 939.8 0.6 58
2018-08-26 11:00:00 23.5 10 Sudeste 23 Sudeste 0 939.9 0.9 69
2018-08-26 10:00:00 22 6 Sudeste 20 Sudeste 0 939.6 0.8 76
2018-08-26 09:00:00 20.4 5 Sudeste 15 Sudeste 0 939.2 0.8 90
2018-08-26 08:00:00 20.2 5 Sudeste 17 Sudeste 0 939 0.9 90
2018-08-26 07:00:00 20.3 0 Calma 17 Sudeste 0 938.8 0.6 91
2018-08-26 06:00:00 20.6 4 Sudeste 16 Sudeste 0 938.4 0.3 90
2018-08-26 05:00:00 20.8 6 Sudeste 17 Sudeste 0 938.1 -0.2 90
2018-08-26 04:00:00 20.7 3 Este 9 Sudeste 0 938.2 0.3 90
2018-08-26 03:00:00 20.8 0 Calma 7 Nordeste 0 938.1 0.5 87
2018-08-26 02:00:00 21.9 0 Calma 15 Este 0 938.3 1.4 83
2018-08-26 01:00:00 22.8 3 Este 14 Este 0 937.9 1.8 80
2018-08-26 00:00:00 23.2 6 Este 18 Norte 0 937.6 1.8 76
2018-08-25 23:00:00 26.5 2 Este 19 Sudoeste 0 936.9 1.4 58
2018-08-25 22:00:00 27.9 6 Sur 21 Sudoeste 0 936.1 0.8 46
2018-08-25 21:00:00 30 2 Sur 19 Sudoeste 0 935.8 0.3 34
2018-08-25 20:00:00 32.3 5 Oeste 24 Oeste 0 935.5 -0.5 18
2018-08-25 19:00:00 32.9 8 Oeste 28 Oeste 0 935.3 -1.4 18
2018-08-25 18:00:00 34.1 4 Oeste 23 Oeste 0 935.5 -1.7 19
2018-08-25 17:00:00 33.4 6 Oeste 19 Noroeste 0 936 -2.1 20
2018-08-25 16:00:00 33.6 8 Sudoeste 21 Sur 0 936.7 -1.9 21
2018-08-25 15:00:00 33.2 0 Calma 12 Norte 0 937.2 -2.3 23
2018-08-25 14:00:00 31.3 4 Este 12 Este 0 938.1 -1.5 28
2018-08-25 13:00:00 28.8 2 Sudeste 9 Sudeste 0 938.6 -0.9 40
2018-08-25 12:00:00 24.7 2 Nordeste 8 Oeste 0 939.5 0.1 58
2018-08-25 11:00:00 22.2 0 Calma 6 Sudoeste 0 939.6 0.2 72
2018-08-25 10:00:00 19.8 0 Calma 6 Oeste 0 939.5 0.5 84
2018-08-25 09:00:00 18.5 0 Calma 6 Oeste 0 939.4 0.4 91
2018-08-25 08:00:00 18.1 0 Calma 6 Oeste 0 939.4 0.4 92
2018-08-25 07:00:00 18.2 3 Oeste 10 Oeste 0 939 0.1 92
2018-08-25 06:00:00 18.7 2 Sudoeste 5 Sudoeste 0 939 0.1 91
2018-08-25 05:00:00 19.2 0 Calma 8 Norte 0 939 0 92
2018-08-25 04:00:00 19.9 0 Calma 8 Este 0 938.9 0 91
2018-08-25 03:00:00 20.7 0 Calma 9 Este 0 938.9 0 87
2018-08-25 02:00:00 22.2 3 Este 9 Este 0 939 0.1 64
2018-08-25 01:00:00 23.7 0 Calma 6 Este 0 938.9 0.2 46
2018-08-25 00:00:00 25.5 0 Calma 16 Sur 0 938.9 0.7 38